sensor_id;sensor_type;location;lat;lon;timestamp;temperature;humidity
33955;DHT22;20233;50.804;7.126;2024-03-07T00:00:09;7.00;99.90
33955;DHT22;20233;50.804;7.126;2024-03-07T00:02:45;7.00;99.90
33955;DHT22;20233;50.804;7.126;2024-03-07T00:05:13;7.00;99.90
33955;DHT22;20233;50.804;7.126;2024-03-07T00:07:39;7.00;99.90
33955;DHT22;20233;50.804;7.126;2024-03-07T00:10:06;6.90;99.90
33955;DHT22;20233;50.804;7.126;2024-03-07T00:12:36;6.90;99.90
33955;DHT22;20233;50.804;7.126;2024-03-07T00:15:08;6.90;99.90
33955;DHT22;20233;50.804;7.126;2024-03-07T00:17:34;6.90;99.90
33955;DHT22;20233;50.804;7.126;2024-03-07T00:20:01;6.90;99.90
33955;DHT22;20233;50.804;7.126;2024-03-07T00:22:26;6.90;99.90
33955;DHT22;20233;50.804;7.126;2024-03-07T00:24:55;6.90;99.90
33955;DHT22;20233;50.804;7.126;2024-03-07T00:27:21;6.80;99.90
33955;DHT22;20233;50.804;7.126;2024-03-07T00:29:47;6.80;99.90
33955;DHT22;20233;50.804;7.126;2024-03-07T00:32:19;6.80;99.90
33955;DHT22;20233;50.804;7.126;2024-03-07T00:34:45;6.80;99.90
33955;DHT22;20233;50.804;7.126;2024-03-07T00:37:11;6.70;99.90
33955;DHT22;20233;50.804;7.126;2024-03-07T00:39:36;6.70;99.90
33955;DHT22;20233;50.804;7.126;2024-03-07T00:42:02;6.70;99.90
33955;DHT22;20233;50.804;7.126;2024-03-07T00:44:28;6.70;99.90
33955;DHT22;20233;50.804;7.126;2024-03-07T00:46:53;6.70;99.90
33955;DHT22;20233;50.804;7.126;2024-03-07T00:49:19;6.70;99.90
33955;DHT22;20233;50.804;7.126;2024-03-07T00:51:45;6.70;99.90
33955;DHT22;20233;50.804;7.126;2024-03-07T00:54:11;6.60;99.90
33955;DHT22;20233;50.804;7.126;2024-03-07T00:56:38;6.40;99.90
33955;DHT22;20233;50.804;7.126;2024-03-07T00:59:04;6.40;99.90
33955;DHT22;20233;50.804;7.126;2024-03-07T01:01:31;6.30;99.90
33955;DHT22;20233;50.804;7.126;2024-03-07T01:03:59;6.30;99.90
33955;DHT22;20233;50.804;7.126;2024-03-07T01:06:25;6.20;99.90
33955;DHT22;20233;50.804;7.126;2024-03-07T01:08:50;6.20;99.90
33955;DHT22;20233;50.804;7.126;2024-03-07T01:11:17;6.10;99.90
33955;DHT22;20233;50.804;7.126;2024-03-07T01:13:43;6.10;99.90
33955;DHT22;20233;50.804;7.126;2024-03-07T01:16:09;6.10;99.90
33955;DHT22;20233;50.804;7.126;2024-03-07T01:18:34;6.10;99.90
33955;DHT22;20233;50.804;7.126;2024-03-07T01:21:01;6.00;99.90
33955;DHT22;20233;50.804;7.126;2024-03-07T01:23:26;6.00;99.90
33955;DHT22;20233;50.804;7.126;2024-03-07T01:25:55;5.90;99.90
33955;DHT22;20233;50.804;7.126;2024-03-07T01:28:22;5.90;99.90
33955;DHT22;20233;50.804;7.126;2024-03-07T01:30:49;5.90;99.90
33955;DHT22;20233;50.804;7.126;2024-03-07T01:33:15;5.90;99.90
33955;DHT22;20233;50.804;7.126;2024-03-07T01:35:40;5.90;99.90
33955;DHT22;20233;50.804;7.126;2024-03-07T01:38:06;5.80;99.90
33955;DHT22;20233;50.804;7.126;2024-03-07T01:40:34;5.80;99.90
33955;DHT22;20233;50.804;7.126;2024-03-07T01:43:02;5.80;99.90
33955;DHT22;20233;50.804;7.126;2024-03-07T01:45:28;5.70;99.90
33955;DHT22;20233;50.804;7.126;2024-03-07T01:47:53;5.70;99.90
33955;DHT22;20233;50.804;7.126;2024-03-07T01:50:21;5.70;99.90
33955;DHT22;20233;50.804;7.126;2024-03-07T01:52:46;5.60;99.90
33955;DHT22;20233;50.804;7.126;2024-03-07T01:55:12;5.60;99.90
33955;DHT22;20233;50.804;7.126;2024-03-07T01:57:39;5.60;99.90
33955;DHT22;20233;50.804;7.126;2024-03-07T02:00:05;5.50;99.90
33955;DHT22;20233;50.804;7.126;2024-03-07T02:02:32;5.50;99.90
33955;DHT22;20233;50.804;7.126;2024-03-07T02:04:58;5.60;99.90
33955;DHT22;20233;50.804;7.126;2024-03-07T02:07:24;5.60;99.90
33955;DHT22;20233;50.804;7.126;2024-03-07T02:09:50;5.50;99.90
33955;DHT22;20233;50.804;7.126;2024-03-07T02:12:15;5.50;99.90
33955;DHT22;20233;50.804;7.126;2024-03-07T02:14:41;5.50;99.90
33955;DHT22;20233;50.804;7.126;2024-03-07T02:17:07;5.50;99.90
33955;DHT22;20233;50.804;7.126;2024-03-07T02:19:33;5.50;99.90
33955;DHT22;20233;50.804;7.126;2024-03-07T02:21:58;5.50;99.90
33955;DHT22;20233;50.804;7.126;2024-03-07T02:24:25;5.50;99.90
33955;DHT22;20233;50.804;7.126;2024-03-07T02:26:50;5.50;99.90
33955;DHT22;20233;50.804;7.126;2024-03-07T02:29:17;5.50;99.90
33955;DHT22;20233;50.804;7.126;2024-03-07T02:31:44;5.40;99.90
33955;DHT22;20233;50.804;7.126;2024-03-07T02:34:10;5.40;99.90
33955;DHT22;20233;50.804;7.126;2024-03-07T02:36:36;5.30;99.90
33955;DHT22;20233;50.804;7.126;2024-03-07T02:39:02;5.20;99.90
33955;DHT22;20233;50.804;7.126;2024-03-07T02:41:27;5.20;99.90
33955;DHT22;20233;50.804;7.126;2024-03-07T02:43:53;5.20;99.90
33955;DHT22;20233;50.804;7.126;2024-03-07T02:46:19;5.20;99.90
33955;DHT22;20233;50.804;7.126;2024-03-07T02:48:45;5.10;99.90
33955;DHT22;20233;50.804;7.126;2024-03-07T02:51:10;5.10;99.90
33955;DHT22;20233;50.804;7.126;2024-03-07T02:53:37;5.10;99.90
33955;DHT22;20233;50.804;7.126;2024-03-07T02:56:04;5.10;99.90
33955;DHT22;20233;50.804;7.126;2024-03-07T02:58:33;5.10;99.90
33955;DHT22;20233;50.804;7.126;2024-03-07T03:00:59;5.10;99.90
33955;DHT22;20233;50.804;7.126;2024-03-07T03:03:29;5.00;99.90
33955;DHT22;20233;50.804;7.126;2024-03-07T03:05:57;5.00;99.90
33955;DHT22;20233;50.804;7.126;2024-03-07T03:08:23;5.00;99.90
33955;DHT22;20233;50.804;7.126;2024-03-07T03:10:49;4.90;99.90
33955;DHT22;20233;50.804;7.126;2024-03-07T03:13:17;4.90;99.90
33955;DHT22;20233;50.804;7.126;2024-03-07T03:15:42;4.80;99.90
33955;DHT22;20233;50.804;7.126;2024-03-07T03:18:08;4.80;99.90
33955;DHT22;20233;50.804;7.126;2024-03-07T03:20:35;4.80;99.90
33955;DHT22;20233;50.804;7.126;2024-03-07T03:23:04;4.70;99.90
33955;DHT22;20233;50.804;7.126;2024-03-07T03:25:31;4.70;99.90
33955;DHT22;20233;50.804;7.126;2024-03-07T03:28:06;4.60;99.90
33955;DHT22;20233;50.804;7.126;2024-03-07T03:30:38;4.60;99.90
33955;DHT22;20233;50.804;7.126;2024-03-07T03:33:04;4.60;99.90
33955;DHT22;20233;50.804;7.126;2024-03-07T03:35:31;4.60;99.90
33955;DHT22;20233;50.804;7.126;2024-03-07T03:37:56;4.60;99.90
33955;DHT22;20233;50.804;7.126;2024-03-07T03:40:22;4.60;99.90
33955;DHT22;20233;50.804;7.126;2024-03-07T03:42:47;4.50;99.90
33955;DHT22;20233;50.804;7.126;2024-03-07T03:45:14;4.50;99.90
33955;DHT22;20233;50.804;7.126;2024-03-07T03:47:43;4.50;99.90
33955;DHT22;20233;50.804;7.126;2024-03-07T03:50:12;4.50;99.90
33955;DHT22;20233;50.804;7.126;2024-03-07T03:52:39;4.40;99.90
33955;DHT22;20233;50.804;7.126;2024-03-07T03:55:05;4.50;99.90
33955;DHT22;20233;50.804;7.126;2024-03-07T03:57:39;4.40;99.90
33955;DHT22;20233;50.804;7.126;2024-03-07T04:00:06;4.40;99.90
33955;DHT22;20233;50.804;7.126;2024-03-07T04:02:41;4.40;99.90
33955;DHT22;20233;50.804;7.126;2024-03-07T04:05:11;4.30;99.90
33955;DHT22;20233;50.804;7.126;2024-03-07T04:07:38;4.30;99.90
33955;DHT22;20233;50.804;7.126;2024-03-07T04:10:05;4.30;99.90
33955;DHT22;20233;50.804;7.126;2024-03-07T04:12:38;4.20;99.90
33955;DHT22;20233;50.804;7.126;2024-03-07T04:15:12;4.20;99.90
33955;DHT22;20233;50.804;7.126;2024-03-07T04:17:39;4.20;99.90
33955;DHT22;20233;50.804;7.126;2024-03-07T04:20:06;4.20;99.90
33955;DHT22;20233;50.804;7.126;2024-03-07T04:22:35;4.20;99.90
33955;DHT22;20233;50.804;7.126;2024-03-07T04:25:04;4.20;99.90
33955;DHT22;20233;50.804;7.126;2024-03-07T04:27:30;4.20;99.90
33955;DHT22;20233;50.804;7.126;2024-03-07T04:29:56;4.10;99.90
33955;DHT22;20233;50.804;7.126;2024-03-07T04:32:21;4.10;99.90
33955;DHT22;20233;50.804;7.126;2024-03-07T04:34:47;4.10;99.90
33955;DHT22;20233;50.804;7.126;2024-03-07T04:37:12;4.10;99.90
33955;DHT22;20233;50.804;7.126;2024-03-07T04:39:39;4.10;99.90
33955;DHT22;20233;50.804;7.126;2024-03-07T04:42:05;4.10;99.90
33955;DHT22;20233;50.804;7.126;2024-03-07T04:44:36;4.00;99.90
33955;DHT22;20233;50.804;7.126;2024-03-07T04:47:02;4.00;99.90
33955;DHT22;20233;50.804;7.126;2024-03-07T04:49:29;3.90;99.90
33955;DHT22;20233;50.804;7.126;2024-03-07T04:51:57;3.90;99.90
33955;DHT22;20233;50.804;7.126;2024-03-07T04:54:24;3.90;99.90
33955;DHT22;20233;50.804;7.126;2024-03-07T04:56:50;3.90;99.90
33955;DHT22;20233;50.804;7.126;2024-03-07T04:59:17;3.90;99.90
33955;DHT22;20233;50.804;7.126;2024-03-07T05:01:44;3.80;99.90
33955;DHT22;20233;50.804;7.126;2024-03-07T05:04:12;3.80;99.90
33955;DHT22;20233;50.804;7.126;2024-03-07T05:06:37;3.80;99.90
33955;DHT22;20233;50.804;7.126;2024-03-07T05:09:04;3.80;99.90
33955;DHT22;20233;50.804;7.126;2024-03-07T05:11:30;3.80;99.90
33955;DHT22;20233;50.804;7.126;2024-03-07T05:13:57;3.70;99.90
33955;DHT22;20233;50.804;7.126;2024-03-07T05:16:30;3.80;99.90
33955;DHT22;20233;50.804;7.126;2024-03-07T05:18:56;3.90;99.90
33955;DHT22;20233;50.804;7.126;2024-03-07T05:21:28;3.90;99.90
33955;DHT22;20233;50.804;7.126;2024-03-07T05:24:05;3.90;99.90
33955;DHT22;20233;50.804;7.126;2024-03-07T05:26:31;4.00;99.90
33955;DHT22;20233;50.804;7.126;2024-03-07T05:29:03;4.00;99.90
33955;DHT22;20233;50.804;7.126;2024-03-07T05:31:39;4.00;99.90
33955;DHT22;20233;50.804;7.126;2024-03-07T05:34:11;4.00;99.90
33955;DHT22;20233;50.804;7.126;2024-03-07T05:36:37;4.00;99.90
33955;DHT22;20233;50.804;7.126;2024-03-07T05:39:10;4.00;99.90
33955;DHT22;20233;50.804;7.126;2024-03-07T05:41:40;4.10;99.90
33955;DHT22;20233;50.804;7.126;2024-03-07T05:44:06;4.10;99.90
33955;DHT22;20233;50.804;7.126;2024-03-07T05:46:36;4.10;99.90
33955;DHT22;20233;50.804;7.126;2024-03-07T05:49:03;4.20;99.90
33955;DHT22;20233;50.804;7.126;2024-03-07T05:51:29;4.20;99.90
33955;DHT22;20233;50.804;7.126;2024-03-07T05:53:55;4.20;99.90
33955;DHT22;20233;50.804;7.126;2024-03-07T05:56:20;4.20;99.90
33955;DHT22;20233;50.804;7.126;2024-03-07T05:58:46;4.20;99.90
33955;DHT22;20233;50.804;7.126;2024-03-07T06:01:11;4.20;99.90
33955;DHT22;20233;50.804;7.126;2024-03-07T06:03:37;4.20;99.90
33955;DHT22;20233;50.804;7.126;2024-03-07T06:06:02;4.30;99.90
33955;DHT22;20233;50.804;7.126;2024-03-07T06:08:31;4.20;99.90
33955;DHT22;20233;50.804;7.126;2024-03-07T06:10:56;4.20;99.90
33955;DHT22;20233;50.804;7.126;2024-03-07T06:13:23;4.20;99.90
33955;DHT22;20233;50.804;7.126;2024-03-07T06:15:48;4.30;99.90
33955;DHT22;20233;50.804;7.126;2024-03-07T06:18:14;4.30;99.90
33955;DHT22;20233;50.804;7.126;2024-03-07T06:20:40;4.20;99.90
33955;DHT22;20233;50.804;7.126;2024-03-07T06:23:07;4.20;99.90
33955;DHT22;20233;50.804;7.126;2024-03-07T06:25:33;4.10;99.90
33955;DHT22;20233;50.804;7.126;2024-03-07T06:28:05;4.10;99.90
33955;DHT22;20233;50.804;7.126;2024-03-07T06:30:36;4.10;99.90
33955;DHT22;20233;50.804;7.126;2024-03-07T06:33:02;4.10;99.90
33955;DHT22;20233;50.804;7.126;2024-03-07T06:35:28;4.10;99.90
33955;DHT22;20233;50.804;7.126;2024-03-07T06:37:53;4.10;99.90
33955;DHT22;20233;50.804;7.126;2024-03-07T06:40:19;4.10;99.90
33955;DHT22;20233;50.804;7.126;2024-03-07T06:42:50;4.20;99.90
33955;DHT22;20233;50.804;7.126;2024-03-07T06:45:17;4.10;99.90
33955;DHT22;20233;50.804;7.126;2024-03-07T06:47:43;4.20;99.90
33955;DHT22;20233;50.804;7.126;2024-03-07T06:50:10;4.10;99.90
33955;DHT22;20233;50.804;7.126;2024-03-07T06:52:40;4.10;99.90
33955;DHT22;20233;50.804;7.126;2024-03-07T06:55:06;4.20;99.90
33955;DHT22;20233;50.804;7.126;2024-03-07T06:57:33;4.20;99.90
33955;DHT22;20233;50.804;7.126;2024-03-07T06:59:59;4.20;99.90
33955;DHT22;20233;50.804;7.126;2024-03-07T07:02:25;4.20;99.90
33955;DHT22;20233;50.804;7.126;2024-03-07T07:04:53;4.20;99.90
33955;DHT22;20233;50.804;7.126;2024-03-07T07:07:18;4.20;99.90
33955;DHT22;20233;50.804;7.126;2024-03-07T07:09:45;4.20;99.90
33955;DHT22;20233;50.804;7.126;2024-03-07T07:12:11;4.20;99.90
33955;DHT22;20233;50.804;7.126;2024-03-07T07:14:36;4.20;99.90
33955;DHT22;20233;50.804;7.126;2024-03-07T07:17:02;4.30;99.90
33955;DHT22;20233;50.804;7.126;2024-03-07T07:19:27;4.30;99.90
33955;DHT22;20233;50.804;7.126;2024-03-07T07:21:53;4.30;99.90
33955;DHT22;20233;50.804;7.126;2024-03-07T07:24:20;4.30;99.90
33955;DHT22;20233;50.804;7.126;2024-03-07T07:26:47;4.40;99.90
33955;DHT22;20233;50.804;7.126;2024-03-07T07:29:12;4.40;99.90
33955;DHT22;20233;50.804;7.126;2024-03-07T07:31:38;4.50;99.90
33955;DHT22;20233;50.804;7.126;2024-03-07T07:34:03;4.40;99.90
33955;DHT22;20233;50.804;7.126;2024-03-07T07:36:30;4.50;99.90
33955;DHT22;20233;50.804;7.126;2024-03-07T07:38:55;4.60;99.90
33955;DHT22;20233;50.804;7.126;2024-03-07T07:41:21;4.60;99.90
33955;DHT22;20233;50.804;7.126;2024-03-07T07:43:47;4.70;99.90
33955;DHT22;20233;50.804;7.126;2024-03-07T07:46:13;4.70;99.90
33955;DHT22;20233;50.804;7.126;2024-03-07T07:48:41;4.80;99.90
33955;DHT22;20233;50.804;7.126;2024-03-07T07:51:07;4.80;99.90
33955;DHT22;20233;50.804;7.126;2024-03-07T07:53:34;4.90;99.90
33955;DHT22;20233;50.804;7.126;2024-03-07T07:55:59;5.00;99.90
33955;DHT22;20233;50.804;7.126;2024-03-07T07:58:25;5.10;99.90
33955;DHT22;20233;50.804;7.126;2024-03-07T08:00:50;5.20;99.90
33955;DHT22;20233;50.804;7.126;2024-03-07T08:03:16;5.20;99.90
33955;DHT22;20233;50.804;7.126;2024-03-07T08:05:43;5.20;99.90
33955;DHT22;20233;50.804;7.126;2024-03-07T08:08:10;5.30;99.90
33955;DHT22;20233;50.804;7.126;2024-03-07T08:10:39;5.30;99.90
33955;DHT22;20233;50.804;7.126;2024-03-07T08:13:05;5.40;99.90
33955;DHT22;20233;50.804;7.126;2024-03-07T08:15:36;5.40;99.90
33955;DHT22;20233;50.804;7.126;2024-03-07T08:18:02;5.50;99.90
33955;DHT22;20233;50.804;7.126;2024-03-07T08:20:33;5.60;99.90
33955;DHT22;20233;50.804;7.126;2024-03-07T08:23:00;5.70;99.90
33955;DHT22;20233;50.804;7.126;2024-03-07T08:25:27;5.70;99.90
33955;DHT22;20233;50.804;7.126;2024-03-07T08:27:54;5.80;99.90
33955;DHT22;20233;50.804;7.126;2024-03-07T08:30:20;5.90;99.90
33955;DHT22;20233;50.804;7.126;2024-03-07T08:32:51;6.00;99.90
33955;DHT22;20233;50.804;7.126;2024-03-07T08:35:19;6.10;99.90
33955;DHT22;20233;50.804;7.126;2024-03-07T08:37:46;6.20;99.90
33955;DHT22;20233;50.804;7.126;2024-03-07T08:40:15;6.30;99.90
33955;DHT22;20233;50.804;7.126;2024-03-07T08:42:47;6.40;99.90
33955;DHT22;20233;50.804;7.126;2024-03-07T08:45:13;6.50;99.90
33955;DHT22;20233;50.804;7.126;2024-03-07T08:47:42;6.50;99.90
33955;DHT22;20233;50.804;7.126;2024-03-07T08:50:09;6.60;99.90
33955;DHT22;20233;50.804;7.126;2024-03-07T08:52:38;6.60;99.90
33955;DHT22;20233;50.804;7.126;2024-03-07T08:55:05;6.70;99.90
33955;DHT22;20233;50.804;7.126;2024-03-07T08:57:31;6.70;99.90
33955;DHT22;20233;50.804;7.126;2024-03-07T08:59:58;6.80;99.90
33955;DHT22;20233;50.804;7.126;2024-03-07T09:02:23;6.90;99.90
33955;DHT22;20233;50.804;7.126;2024-03-07T09:04:49;6.90;99.90
33955;DHT22;20233;50.804;7.126;2024-03-07T09:07:15;6.90;99.90
33955;DHT22;20233;50.804;7.126;2024-03-07T09:09:42;7.00;99.90
33955;DHT22;20233;50.804;7.126;2024-03-07T09:12:08;7.00;99.90
33955;DHT22;20233;50.804;7.126;2024-03-07T09:14:34;7.10;99.90
33955;DHT22;20233;50.804;7.126;2024-03-07T09:17:01;7.20;99.90
33955;DHT22;20233;50.804;7.126;2024-03-07T09:19:26;7.30;99.90
33955;DHT22;20233;50.804;7.126;2024-03-07T09:21:52;7.40;99.90
33955;DHT22;20233;50.804;7.126;2024-03-07T09:24:19;7.40;99.90
33955;DHT22;20233;50.804;7.126;2024-03-07T09:26:51;7.50;99.90
33955;DHT22;20233;50.804;7.126;2024-03-07T09:29:17;7.50;99.90
33955;DHT22;20233;50.804;7.126;2024-03-07T09:31:44;7.60;99.90
33955;DHT22;20233;50.804;7.126;2024-03-07T09:34:10;7.60;99.90
33955;DHT22;20233;50.804;7.126;2024-03-07T09:36:35;7.60;99.90
33955;DHT22;20233;50.804;7.126;2024-03-07T09:39:01;7.60;99.90
33955;DHT22;20233;50.804;7.126;2024-03-07T09:41:26;7.70;99.90
33955;DHT22;20233;50.804;7.126;2024-03-07T09:43:52;7.80;99.90
33955;DHT22;20233;50.804;7.126;2024-03-07T09:46:22;7.90;99.90
33955;DHT22;20233;50.804;7.126;2024-03-07T09:48:49;8.10;99.90
33955;DHT22;20233;50.804;7.126;2024-03-07T09:51:17;8.00;99.90
33955;DHT22;20233;50.804;7.126;2024-03-07T09:53:45;8.10;99.90
33955;DHT22;20233;50.804;7.126;2024-03-07T09:56:12;8.20;99.90
33955;DHT22;20233;50.804;7.126;2024-03-07T09:58:40;8.30;99.90
33955;DHT22;20233;50.804;7.126;2024-03-07T10:01:07;8.40;99.90
33955;DHT22;20233;50.804;7.126;2024-03-07T10:03:35;8.50;99.90
33955;DHT22;20233;50.804;7.126;2024-03-07T10:06:01;8.50;99.90
33955;DHT22;20233;50.804;7.126;2024-03-07T10:08:28;8.50;99.90
33955;DHT22;20233;50.804;7.126;2024-03-07T10:10:56;8.60;99.90
33955;DHT22;20233;50.804;7.126;2024-03-07T10:13:21;8.70;99.90
33955;DHT22;20233;50.804;7.126;2024-03-07T10:15:48;8.80;99.90
33955;DHT22;20233;50.804;7.126;2024-03-07T10:18:14;8.90;99.90
33955;DHT22;20233;50.804;7.126;2024-03-07T10:20:42;9.00;99.90
33955;DHT22;20233;50.804;7.126;2024-03-07T10:23:09;9.00;99.90
33955;DHT22;20233;50.804;7.126;2024-03-07T10:25:34;9.00;99.90
33955;DHT22;20233;50.804;7.126;2024-03-07T10:28:01;9.00;99.90
33955;DHT22;20233;50.804;7.126;2024-03-07T10:30:29;9.00;99.90
33955;DHT22;20233;50.804;7.126;2024-03-07T10:32:57;9.00;99.90
33955;DHT22;20233;50.804;7.126;2024-03-07T10:35:23;9.20;99.90
33955;DHT22;20233;50.804;7.126;2024-03-07T10:37:53;9.30;99.90
33955;DHT22;20233;50.804;7.126;2024-03-07T10:40:22;9.50;99.90
33955;DHT22;20233;50.804;7.126;2024-03-07T10:42:48;9.50;99.90
33955;DHT22;20233;50.804;7.126;2024-03-07T10:45:18;9.60;99.90
33955;DHT22;20233;50.804;7.126;2024-03-07T10:47:52;9.60;99.90
33955;DHT22;20233;50.804;7.126;2024-03-07T10:58:37;9.80;99.90
33955;DHT22;20233;50.804;7.126;2024-03-07T11:01:07;9.90;99.90
33955;DHT22;20233;50.804;7.126;2024-03-07T11:03:36;9.90;99.90
33955;DHT22;20233;50.804;7.126;2024-03-07T11:06:02;10.10;99.90
33955;DHT22;20233;50.804;7.126;2024-03-07T11:08:35;10.20;99.90
33955;DHT22;20233;50.804;7.126;2024-03-07T11:11:02;10.30;99.90
33955;DHT22;20233;50.804;7.126;2024-03-07T11:13:28;10.20;99.90
33955;DHT22;20233;50.804;7.126;2024-03-07T11:15:55;10.30;99.90
33955;DHT22;20233;50.804;7.126;2024-03-07T11:18:23;10.40;99.90
33955;DHT22;20233;50.804;7.126;2024-03-07T11:20:49;10.40;99.90
33955;DHT22;20233;50.804;7.126;2024-03-07T11:23:31;10.50;99.90
33955;DHT22;20233;50.804;7.126;2024-03-07T11:26:15;10.60;99.90
33955;DHT22;20233;50.804;7.126;2024-03-07T11:28:42;10.60;99.90
33955;DHT22;20233;50.804;7.126;2024-03-07T11:31:34;10.50;99.90
33955;DHT22;20233;50.804;7.126;2024-03-07T11:34:13;10.60;99.90
33955;DHT22;20233;50.804;7.126;2024-03-07T11:36:48;10.60;99.90
33955;DHT22;20233;50.804;7.126;2024-03-07T11:39:51;10.50;99.90
33955;DHT22;20233;50.804;7.126;2024-03-07T11:44:49;10.30;99.90
33955;DHT22;20233;50.804;7.126;2024-03-07T11:47:15;9.90;99.90
33955;DHT22;20233;50.804;7.126;2024-03-07T11:49:43;9.90;99.90
33955;DHT22;20233;50.804;7.126;2024-03-07T11:52:09;10.00;99.90
33955;DHT22;20233;50.804;7.126;2024-03-07T11:54:39;10.10;99.90
33955;DHT22;20233;50.804;7.126;2024-03-07T11:57:14;10.20;99.90
33955;DHT22;20233;50.804;7.126;2024-03-07T11:59:40;10.40;99.90
33955;DHT22;20233;50.804;7.126;2024-03-07T12:02:13;10.50;99.90
33955;DHT22;20233;50.804;7.126;2024-03-07T12:04:41;10.70;99.90
33955;DHT22;20233;50.804;7.126;2024-03-07T12:07:06;10.90;99.90
33955;DHT22;20233;50.804;7.126;2024-03-07T12:09:36;10.90;99.90
33955;DHT22;20233;50.804;7.126;2024-03-07T12:12:06;11.00;99.90
33955;DHT22;20233;50.804;7.126;2024-03-07T12:14:32;11.00;99.90
33955;DHT22;20233;50.804;7.126;2024-03-07T12:17:00;11.10;99.90
33955;DHT22;20233;50.804;7.126;2024-03-07T12:19:26;11.30;99.90
33955;DHT22;20233;50.804;7.126;2024-03-07T12:21:56;11.40;99.90
33955;DHT22;20233;50.804;7.126;2024-03-07T12:24:23;11.40;99.90
33955;DHT22;20233;50.804;7.126;2024-03-07T12:26:48;11.50;99.90
33955;DHT22;20233;50.804;7.126;2024-03-07T12:29:14;11.60;99.90
33955;DHT22;20233;50.804;7.126;2024-03-07T12:31:41;11.70;99.90
33955;DHT22;20233;50.804;7.126;2024-03-07T12:34:08;11.60;99.90
33955;DHT22;20233;50.804;7.126;2024-03-07T12:36:38;11.60;99.90
33955;DHT22;20233;50.804;7.126;2024-03-07T12:39:25;11.40;99.90
33955;DHT22;20233;50.804;7.126;2024-03-07T12:41:52;11.40;99.90
33955;DHT22;20233;50.804;7.126;2024-03-07T12:44:21;11.30;99.90
33955;DHT22;20233;50.804;7.126;2024-03-07T12:49:14;11.00;99.90
33955;DHT22;20233;50.804;7.126;2024-03-07T12:51:42;11.00;99.90
33955;DHT22;20233;50.804;7.126;2024-03-07T12:54:07;11.00;99.90
33955;DHT22;20233;50.804;7.126;2024-03-07T12:56:35;10.90;99.90
33955;DHT22;20233;50.804;7.126;2024-03-07T12:59:05;11.00;99.90
33955;DHT22;20233;50.804;7.126;2024-03-07T13:01:35;11.00;99.90
33955;DHT22;20233;50.804;7.126;2024-03-07T13:04:02;10.90;99.90
33955;DHT22;20233;50.804;7.126;2024-03-07T13:06:29;10.90;99.90
33955;DHT22;20233;50.804;7.126;2024-03-07T13:08:58;10.90;99.90
33955;DHT22;20233;50.804;7.126;2024-03-07T13:11:24;10.80;99.90
33955;DHT22;20233;50.804;7.126;2024-03-07T13:13:53;10.70;99.90
33955;DHT22;20233;50.804;7.126;2024-03-07T13:16:18;10.80;99.90
33955;DHT22;20233;50.804;7.126;2024-03-07T13:18:44;10.90;99.90
33955;DHT22;20233;50.804;7.126;2024-03-07T13:21:11;11.00;99.90
33955;DHT22;20233;50.804;7.126;2024-03-07T13:23:43;11.10;99.90
33955;DHT22;20233;50.804;7.126;2024-03-07T13:26:09;11.20;99.90
33955;DHT22;20233;50.804;7.126;2024-03-07T13:28:42;11.20;99.90
33955;DHT22;20233;50.804;7.126;2024-03-07T13:31:10;11.20;99.90
33955;DHT22;20233;50.804;7.126;2024-03-07T13:33:37;11.30;99.90
33955;DHT22;20233;50.804;7.126;2024-03-07T13:36:03;11.30;99.90
33955;DHT22;20233;50.804;7.126;2024-03-07T13:38:30;11.40;99.90
33955;DHT22;20233;50.804;7.126;2024-03-07T13:40:55;11.40;99.90
33955;DHT22;20233;50.804;7.126;2024-03-07T13:43:22;11.50;99.90
33955;DHT22;20233;50.804;7.126;2024-03-07T13:45:48;11.60;99.90
33955;DHT22;20233;50.804;7.126;2024-03-07T13:48:14;11.60;99.90
33955;DHT22;20233;50.804;7.126;2024-03-07T13:50:43;11.60;99.90
33955;DHT22;20233;50.804;7.126;2024-03-07T13:53:14;11.70;99.90
33955;DHT22;20233;50.804;7.126;2024-03-07T14:01:37;11.60;99.90
33955;DHT22;20233;50.804;7.126;2024-03-07T14:13:44;11.50;99.90
33955;DHT22;20233;50.804;7.126;2024-03-07T14:29:22;11.70;99.90
33955;DHT22;20233;50.804;7.126;2024-03-07T14:31:52;11.80;99.90
33955;DHT22;20233;50.804;7.126;2024-03-07T14:37:17;11.70;99.90
33955;DHT22;20233;50.804;7.126;2024-03-07T14:39:45;11.70;99.90
33955;DHT22;20233;50.804;7.126;2024-03-07T14:42:13;11.70;99.90
33955;DHT22;20233;50.804;7.126;2024-03-07T14:44:42;11.60;99.90
33955;DHT22;20233;50.804;7.126;2024-03-07T14:47:11;11.50;99.90
33955;DHT22;20233;50.804;7.126;2024-03-07T14:49:40;11.30;99.90
33955;DHT22;20233;50.804;7.126;2024-03-07T14:52:07;11.00;99.90
33955;DHT22;20233;50.804;7.126;2024-03-07T14:54:39;10.70;99.90
33955;DHT22;20233;50.804;7.126;2024-03-07T14:57:07;10.60;99.90
33955;DHT22;20233;50.804;7.126;2024-03-07T14:59:33;10.50;99.90
33955;DHT22;20233;50.804;7.126;2024-03-07T15:01:59;10.60;99.90
33955;DHT22;20233;50.804;7.126;2024-03-07T15:04:27;10.50;99.90
33955;DHT22;20233;50.804;7.126;2024-03-07T15:06:55;10.50;99.90
33955;DHT22;20233;50.804;7.126;2024-03-07T15:09:23;10.60;99.90
33955;DHT22;20233;50.804;7.126;2024-03-07T15:11:49;10.60;99.90
33955;DHT22;20233;50.804;7.126;2024-03-07T15:14:15;10.40;99.90
33955;DHT22;20233;50.804;7.126;2024-03-07T15:16:41;10.50;99.90
33955;DHT22;20233;50.804;7.126;2024-03-07T15:19:11;10.60;99.90
33955;DHT22;20233;50.804;7.126;2024-03-07T15:21:37;10.60;99.90
33955;DHT22;20233;50.804;7.126;2024-03-07T15:24:03;10.60;99.90
33955;DHT22;20233;50.804;7.126;2024-03-07T15:26:30;10.60;99.90
33955;DHT22;20233;50.804;7.126;2024-03-07T15:29:00;10.70;99.90
33955;DHT22;20233;50.804;7.126;2024-03-07T15:31:26;10.70;99.90
33955;DHT22;20233;50.804;7.126;2024-03-07T15:33:52;10.80;99.90
33955;DHT22;20233;50.804;7.126;2024-03-07T15:36:19;10.80;99.90
33955;DHT22;20233;50.804;7.126;2024-03-07T15:38:45;10.90;99.90
33955;DHT22;20233;50.804;7.126;2024-03-07T15:41:11;10.90;99.90
33955;DHT22;20233;50.804;7.126;2024-03-07T15:43:41;10.90;99.90
33955;DHT22;20233;50.804;7.126;2024-03-07T15:46:08;10.90;99.90
33955;DHT22;20233;50.804;7.126;2024-03-07T15:48:36;10.80;99.90
33955;DHT22;20233;50.804;7.126;2024-03-07T15:51:02;10.60;99.90
33955;DHT22;20233;50.804;7.126;2024-03-07T15:53:29;10.50;99.90
33955;DHT22;20233;50.804;7.126;2024-03-07T15:55:55;10.60;99.90
33955;DHT22;20233;50.804;7.126;2024-03-07T15:58:21;10.50;99.90
33955;DHT22;20233;50.804;7.126;2024-03-07T16:00:48;10.60;99.90
33955;DHT22;20233;50.804;7.126;2024-03-07T16:03:14;10.60;99.90
33955;DHT22;20233;50.804;7.126;2024-03-07T16:05:43;10.50;99.90
33955;DHT22;20233;50.804;7.126;2024-03-07T16:08:10;10.40;99.90
33955;DHT22;20233;50.804;7.126;2024-03-07T16:10:38;10.30;99.90
33955;DHT22;20233;50.804;7.126;2024-03-07T16:13:08;10.30;99.90
33955;DHT22;20233;50.804;7.126;2024-03-07T16:15:36;10.30;99.90
33955;DHT22;20233;50.804;7.126;2024-03-07T16:18:02;10.20;99.90
33955;DHT22;20233;50.804;7.126;2024-03-07T16:20:29;10.30;99.90
33955;DHT22;20233;50.804;7.126;2024-03-07T16:22:56;10.30;99.90
33955;DHT22;20233;50.804;7.126;2024-03-07T16:25:23;10.10;99.90
33955;DHT22;20233;50.804;7.126;2024-03-07T16:27:50;10.10;99.90